sensor_id;sensor_type;location;lat;lon;timestamp;pressure;altitude;pressure_sealevel;temperature
11792;BMP180;5953;52.372;9.918;2023-03-21T00:00:45;100894.00;;;13.20
11792;BMP180;5953;52.372;9.918;2023-03-21T00:03:14;100891.00;;;12.80
11792;BMP180;5953;52.372;9.918;2023-03-21T00:05:43;100893.00;;;12.90
11792;BMP180;5953;52.372;9.918;2023-03-21T00:08:15;100882.00;;;12.80
11792;BMP180;5953;52.372;9.918;2023-03-21T00:10:43;100882.00;;;12.80
11792;BMP180;5953;52.372;9.918;2023-03-21T00:13:11;100885.00;;;12.70
11792;BMP180;5953;52.372;9.918;2023-03-21T00:15:39;100887.00;;;12.60
11792;BMP180;5953;52.372;9.918;2023-03-21T00:18:37;100881.00;;;12.70
11792;BMP180;5953;52.372;9.918;2023-03-21T00:21:09;100878.00;;;12.70
11792;BMP180;5953;52.372;9.918;2023-03-21T00:23:59;100885.00;;;12.70
11792;BMP180;5953;52.372;9.918;2023-03-21T00:26:27;100877.00;;;12.90
11792;BMP180;5953;52.372;9.918;2023-03-21T00:28:55;100877.00;;;13.10
11792;BMP180;5953;52.372;9.918;2023-03-21T00:31:23;100871.00;;;12.70
11792;BMP180;5953;52.372;9.918;2023-03-21T00:33:52;100866.00;;;12.80
11792;BMP180;5953;52.372;9.918;2023-03-21T00:36:20;100860.00;;;13.00
11792;BMP180;5953;52.372;9.918;2023-03-21T00:38:51;100870.00;;;12.80
11792;BMP180;5953;52.372;9.918;2023-03-21T00:41:19;100866.00;;;13.00
11792;BMP180;5953;52.372;9.918;2023-03-21T00:44:06;100864.00;;;13.10
11792;BMP180;5953;52.372;9.918;2023-03-21T00:46:34;100835.00;;;13.10
11792;BMP180;5953;52.372;9.918;2023-03-21T00:49:18;100861.00;;;12.40
11792;BMP180;5953;52.372;9.918;2023-03-21T00:51:47;100859.00;;;12.40
11792;BMP180;5953;52.372;9.918;2023-03-21T00:54:17;100835.00;;;12.60
11792;BMP180;5953;52.372;9.918;2023-03-21T00:56:45;100866.00;;;12.80
11792;BMP180;5953;52.372;9.918;2023-03-21T00:59:13;100857.00;;;12.90
11792;BMP180;5953;52.372;9.918;2023-03-21T01:01:40;100854.00;;;12.90
11792;BMP180;5953;52.372;9.918;2023-03-21T01:04:09;100825.00;;;12.60
11792;BMP180;5953;52.372;9.918;2023-03-21T01:06:42;100836.00;;;12.70
11792;BMP180;5953;52.372;9.918;2023-03-21T01:09:12;100851.00;;;12.60
11792;BMP180;5953;52.372;9.918;2023-03-21T01:11:41;100847.00;;;12.60
11792;BMP180;5953;52.372;9.918;2023-03-21T01:14:09;100834.00;;;12.90
11792;BMP180;5953;52.372;9.918;2023-03-21T01:16:49;100832.00;;;12.60
11792;BMP180;5953;52.372;9.918;2023-03-21T01:19:18;100838.00;;;12.80
11792;BMP180;5953;52.372;9.918;2023-03-21T01:22:04;100846.00;;;12.90
11792;BMP180;5953;52.372;9.918;2023-03-21T01:24:32;100817.00;;;13.00
11792;BMP180;5953;52.372;9.918;2023-03-21T01:27:03;100847.00;;;13.00
11792;BMP180;5953;52.372;9.918;2023-03-21T01:29:31;100798.00;;;12.50
11792;BMP180;5953;52.372;9.918;2023-03-21T01:31:59;100810.00;;;12.80
11792;BMP180;5953;52.372;9.918;2023-03-21T01:34:27;100830.00;;;12.60
11792;BMP180;5953;52.372;9.918;2023-03-21T01:36:55;100831.00;;;12.90
11792;BMP180;5953;52.372;9.918;2023-03-21T01:39:24;100831.00;;;12.80
11792;BMP180;5953;52.372;9.918;2023-03-21T01:41:52;100831.00;;;13.00
11792;BMP180;5953;52.372;9.918;2023-03-21T01:44:20;100829.00;;;12.90
11792;BMP180;5953;52.372;9.918;2023-03-21T01:46:48;100823.00;;;13.20
11792;BMP180;5953;52.372;9.918;2023-03-21T01:49:37;100826.00;;;12.50
11792;BMP180;5953;52.372;9.918;2023-03-21T01:52:10;100828.00;;;12.90
11792;BMP180;5953;52.372;9.918;2023-03-21T01:54:57;100787.00;;;13.00
11792;BMP180;5953;52.372;9.918;2023-03-21T01:57:28;100810.00;;;12.80
11792;BMP180;5953;52.372;9.918;2023-03-21T02:00:11;100809.00;;;12.70
11792;BMP180;5953;52.372;9.918;2023-03-21T02:02:42;100806.00;;;12.80
11792;BMP180;5953;52.372;9.918;2023-03-21T02:05:22;100814.00;;;12.70
11792;BMP180;5953;52.372;9.918;2023-03-21T02:07:51;100822.00;;;12.70
11792;BMP180;5953;52.372;9.918;2023-03-21T02:10:21;100815.00;;;12.80
11792;BMP180;5953;52.372;9.918;2023-03-21T02:12:49;100797.00;;;12.80
11792;BMP180;5953;52.372;9.918;2023-03-21T02:15:21;100780.00;;;12.90
11792;BMP180;5953;52.372;9.918;2023-03-21T02:17:55;100791.00;;;13.00
11792;BMP180;5953;52.372;9.918;2023-03-21T02:24:09;100793.00;;;12.80
11792;BMP180;5953;52.372;9.918;2023-03-21T02:26:52;100787.00;;;12.90
11792;BMP180;5953;52.372;9.918;2023-03-21T02:29:57;100783.00;;;12.60
11792;BMP180;5953;52.372;9.918;2023-03-21T02:32:39;100780.00;;;13.00
11792;BMP180;5953;52.372;9.918;2023-03-21T02:35:24;100797.00;;;13.00
11792;BMP180;5953;52.372;9.918;2023-03-21T02:37:58;100783.00;;;13.00
11792;BMP180;5953;52.372;9.918;2023-03-21T02:40:32;100778.00;;;13.20
11792;BMP180;5953;52.372;9.918;2023-03-21T02:43:04;100756.00;;;13.10
11792;BMP180;5953;52.372;9.918;2023-03-21T02:45:51;100784.00;;;13.10
11792;BMP180;5953;52.372;9.918;2023-03-21T02:48:22;100764.00;;;13.00
11792;BMP180;5953;52.372;9.918;2023-03-21T02:51:04;100784.00;;;12.50
11792;BMP180;5953;52.372;9.918;2023-03-21T02:53:37;100777.00;;;12.50
11792;BMP180;5953;52.372;9.918;2023-03-21T02:56:08;100777.00;;;12.90
11792;BMP180;5953;52.372;9.918;2023-03-21T02:58:37;100758.00;;;12.70
11792;BMP180;5953;52.372;9.918;2023-03-21T03:01:06;100760.00;;;12.70
11792;BMP180;5953;52.372;9.918;2023-03-21T03:03:35;100745.00;;;13.00
11792;BMP180;5953;52.372;9.918;2023-03-21T03:06:14;100765.00;;;13.10
11792;BMP180;5953;52.372;9.918;2023-03-21T03:08:54;100771.00;;;13.10
11792;BMP180;5953;52.372;9.918;2023-03-21T03:11:30;100770.00;;;13.00
11792;BMP180;5953;52.372;9.918;2023-03-21T03:14:13;100755.00;;;13.00
11792;BMP180;5953;52.372;9.918;2023-03-21T03:17:16;100758.00;;;13.30
11792;BMP180;5953;52.372;9.918;2023-03-21T03:19:55;100758.00;;;12.80
11792;BMP180;5953;52.372;9.918;2023-03-21T03:22:38;100759.00;;;13.10
11792;BMP180;5953;52.372;9.918;2023-03-21T03:25:13;100764.00;;;13.40
11792;BMP180;5953;52.372;9.918;2023-03-21T03:27:53;100741.00;;;12.60
11792;BMP180;5953;52.372;9.918;2023-03-21T03:30:24;100746.00;;;13.20
11792;BMP180;5953;52.372;9.918;2023-03-21T03:33:08;100750.00;;;13.30
11792;BMP180;5953;52.372;9.918;2023-03-21T03:35:37;100742.00;;;13.20
11792;BMP180;5953;52.372;9.918;2023-03-21T03:38:06;100754.00;;;13.20
11792;BMP180;5953;52.372;9.918;2023-03-21T03:40:39;100745.00;;;13.30
11792;BMP180;5953;52.372;9.918;2023-03-21T03:43:09;100751.00;;;13.10
11792;BMP180;5953;52.372;9.918;2023-03-21T03:45:42;100742.00;;;13.10
11792;BMP180;5953;52.372;9.918;2023-03-21T03:48:14;100743.00;;;13.30
11792;BMP180;5953;52.372;9.918;2023-03-21T03:50:49;100737.00;;;13.40
11792;BMP180;5953;52.372;9.918;2023-03-21T03:53:21;100752.00;;;13.30
11792;BMP180;5953;52.372;9.918;2023-03-21T03:55:52;100749.00;;;13.10
11792;BMP180;5953;52.372;9.918;2023-03-21T03:58:23;100754.00;;;13.30
11792;BMP180;5953;52.372;9.918;2023-03-21T04:01:10;100740.00;;;13.10
11792;BMP180;5953;52.372;9.918;2023-03-21T04:03:40;100734.00;;;13.10
11792;BMP180;5953;52.372;9.918;2023-03-21T04:06:17;100758.00;;;13.40
11792;BMP180;5953;52.372;9.918;2023-03-21T04:08:47;100756.00;;;13.40
11792;BMP180;5953;52.372;9.918;2023-03-21T04:11:17;100742.00;;;13.30
11792;BMP180;5953;52.372;9.918;2023-03-21T04:13:45;100747.00;;;13.40
11792;BMP180;5953;52.372;9.918;2023-03-21T04:16:13;100748.00;;;13.20
11792;BMP180;5953;52.372;9.918;2023-03-21T04:18:42;100739.00;;;12.80
11792;BMP180;5953;52.372;9.918;2023-03-21T04:21:11;100731.00;;;13.10
11792;BMP180;5953;52.372;9.918;2023-03-21T04:23:40;100746.00;;;13.00
11792;BMP180;5953;52.372;9.918;2023-03-21T04:26:08;100741.00;;;13.20
11792;BMP180;5953;52.372;9.918;2023-03-21T04:28:37;100736.00;;;12.40
11792;BMP180;5953;52.372;9.918;2023-03-21T04:31:07;100739.00;;;13.10
11792;BMP180;5953;52.372;9.918;2023-03-21T04:33:50;100732.00;;;13.10
11792;BMP180;5953;52.372;9.918;2023-03-21T04:36:18;100732.00;;;13.20
11792;BMP180;5953;52.372;9.918;2023-03-21T04:38:53;100744.00;;;12.70
11792;BMP180;5953;52.372;9.918;2023-03-21T04:41:22;100728.00;;;13.20
11792;BMP180;5953;52.372;9.918;2023-03-21T04:43:52;100738.00;;;13.30
11792;BMP180;5953;52.372;9.918;2023-03-21T04:46:20;100732.00;;;12.90
11792;BMP180;5953;52.372;9.918;2023-03-21T04:48:48;100723.00;;;13.30
11792;BMP180;5953;52.372;9.918;2023-03-21T04:51:16;100736.00;;;13.30
11792;BMP180;5953;52.372;9.918;2023-03-21T04:53:44;100731.00;;;13.30
11792;BMP180;5953;52.372;9.918;2023-03-21T04:56:15;100741.00;;;13.30
11792;BMP180;5953;52.372;9.918;2023-03-21T04:58:43;100738.00;;;13.40
11792;BMP180;5953;52.372;9.918;2023-03-21T05:01:12;100738.00;;;13.30
11792;BMP180;5953;52.372;9.918;2023-03-21T05:03:45;100730.00;;;13.10
11792;BMP180;5953;52.372;9.918;2023-03-21T05:06:13;100749.00;;;13.10
11792;BMP180;5953;52.372;9.918;2023-03-21T05:08:41;100732.00;;;13.10
11792;BMP180;5953;52.372;9.918;2023-03-21T05:11:09;100723.00;;;13.30
11792;BMP180;5953;52.372;9.918;2023-03-21T05:13:37;100700.00;;;13.50
11792;BMP180;5953;52.372;9.918;2023-03-21T05:16:06;100726.00;;;13.20
11792;BMP180;5953;52.372;9.918;2023-03-21T05:18:35;100735.00;;;13.30
11792;BMP180;5953;52.372;9.918;2023-03-21T05:21:05;100720.00;;;13.20
11792;BMP180;5953;52.372;9.918;2023-03-21T05:23:36;100677.00;;;12.90
11792;BMP180;5953;52.372;9.918;2023-03-21T05:26:05;100735.00;;;13.20
11792;BMP180;5953;52.372;9.918;2023-03-21T05:28:33;100721.00;;;13.20
11792;BMP180;5953;52.372;9.918;2023-03-21T05:31:02;100729.00;;;12.90
11792;BMP180;5953;52.372;9.918;2023-03-21T05:33:30;100724.00;;;12.80
11792;BMP180;5953;52.372;9.918;2023-03-21T05:36:00;100732.00;;;13.00
11792;BMP180;5953;52.372;9.918;2023-03-21T05:38:28;100699.00;;;12.90
11792;BMP180;5953;52.372;9.918;2023-03-21T05:40:57;100722.00;;;13.20
11792;BMP180;5953;52.372;9.918;2023-03-21T05:43:24;100717.00;;;13.20
11792;BMP180;5953;52.372;9.918;2023-03-21T05:45:54;100714.00;;;13.20
11792;BMP180;5953;52.372;9.918;2023-03-21T05:48:24;100721.00;;;13.20
11792;BMP180;5953;52.372;9.918;2023-03-21T05:50:52;100732.00;;;13.10
11792;BMP180;5953;52.372;9.918;2023-03-21T05:53:21;100706.00;;;13.00
11792;BMP180;5953;52.372;9.918;2023-03-21T05:55:56;100709.00;;;13.10
11792;BMP180;5953;52.372;9.918;2023-03-21T05:58:24;100695.00;;;13.10
11792;BMP180;5953;52.372;9.918;2023-03-21T06:01:14;100725.00;;;13.00
11792;BMP180;5953;52.372;9.918;2023-03-21T06:03:42;100742.00;;;12.70
11792;BMP180;5953;52.372;9.918;2023-03-21T06:06:10;100729.00;;;13.10
11792;BMP180;5953;52.372;9.918;2023-03-21T06:08:40;100738.00;;;12.80
11792;BMP180;5953;52.372;9.918;2023-03-21T06:11:18;100730.00;;;12.90
11792;BMP180;5953;52.372;9.918;2023-03-21T06:13:47;100729.00;;;13.30
11792;BMP180;5953;52.372;9.918;2023-03-21T06:16:22;100692.00;;;13.20
11792;BMP180;5953;52.372;9.918;2023-03-21T06:18:50;100700.00;;;13.20
11792;BMP180;5953;52.372;9.918;2023-03-21T06:21:19;100723.00;;;13.00
11792;BMP180;5953;52.372;9.918;2023-03-21T06:23:53;100739.00;;;13.40
11792;BMP180;5953;52.372;9.918;2023-03-21T06:26:22;100741.00;;;13.20
11792;BMP180;5953;52.372;9.918;2023-03-21T06:28:51;100736.00;;;13.60
11792;BMP180;5953;52.372;9.918;2023-03-21T06:31:24;100736.00;;;13.50
11792;BMP180;5953;52.372;9.918;2023-03-21T06:33:52;100702.00;;;13.50
11792;BMP180;5953;52.372;9.918;2023-03-21T06:36:24;100744.00;;;13.60
11792;BMP180;5953;52.372;9.918;2023-03-21T06:38:56;100748.00;;;13.70
11792;BMP180;5953;52.372;9.918;2023-03-21T06:41:24;100730.00;;;13.50
11792;BMP180;5953;52.372;9.918;2023-03-21T06:43:53;100736.00;;;13.60
11792;BMP180;5953;52.372;9.918;2023-03-21T06:46:21;100731.00;;;13.60
11792;BMP180;5953;52.372;9.918;2023-03-21T06:48:49;100746.00;;;13.60
11792;BMP180;5953;52.372;9.918;2023-03-21T06:51:17;100740.00;;;13.60
11792;BMP180;5953;52.372;9.918;2023-03-21T06:53:48;100753.00;;;13.80
11792;BMP180;5953;52.372;9.918;2023-03-21T06:56:18;100717.00;;;13.70
11792;BMP180;5953;52.372;9.918;2023-03-21T06:58:48;100725.00;;;13.70
11792;BMP180;5953;52.372;9.918;2023-03-21T07:01:24;100754.00;;;13.70
11792;BMP180;5953;52.372;9.918;2023-03-21T07:04:02;100696.00;;;13.80
11792;BMP180;5953;52.372;9.918;2023-03-21T07:06:42;100738.00;;;13.80
11792;BMP180;5953;52.372;9.918;2023-03-21T07:09:44;100693.00;;;13.90
11792;BMP180;5953;52.372;9.918;2023-03-21T07:12:53;100751.00;;;14.00
11792;BMP180;5953;52.372;9.918;2023-03-21T07:15:31;100747.00;;;14.10
11792;BMP180;5953;52.372;9.918;2023-03-21T07:18:22;100749.00;;;14.00
11792;BMP180;5953;52.372;9.918;2023-03-21T07:20:55;100719.00;;;14.10
11792;BMP180;5953;52.372;9.918;2023-03-21T07:23:31;100748.00;;;14.10
11792;BMP180;5953;52.372;9.918;2023-03-21T07:26:05;100732.00;;;14.00
11792;BMP180;5953;52.372;9.918;2023-03-21T07:28:36;100742.00;;;13.90
11792;BMP180;5953;52.372;9.918;2023-03-21T07:31:06;100744.00;;;14.20
11792;BMP180;5953;52.372;9.918;2023-03-21T07:33:34;100743.00;;;14.20
11792;BMP180;5953;52.372;9.918;2023-03-21T07:36:03;100704.00;;;14.20
11792;BMP180;5953;52.372;9.918;2023-03-21T07:38:31;100699.00;;;14.30
11792;BMP180;5953;52.372;9.918;2023-03-21T07:40:59;100712.00;;;14.20
11792;BMP180;5953;52.372;9.918;2023-03-21T07:43:27;100731.00;;;14.10
11792;BMP180;5953;52.372;9.918;2023-03-21T07:45:57;100732.00;;;14.10
11792;BMP180;5953;52.372;9.918;2023-03-21T07:48:26;100697.00;;;14.20
11792;BMP180;5953;52.372;9.918;2023-03-21T07:50:55;100732.00;;;14.30
11792;BMP180;5953;52.372;9.918;2023-03-21T07:53:23;100705.00;;;14.30
11792;BMP180;5953;52.372;9.918;2023-03-21T07:55:52;100718.00;;;14.30
11792;BMP180;5953;52.372;9.918;2023-03-21T07:58:22;100692.00;;;14.40
11792;BMP180;5953;52.372;9.918;2023-03-21T08:00:50;100729.00;;;14.30
11792;BMP180;5953;52.372;9.918;2023-03-21T08:03:20;100714.00;;;14.40
11792;BMP180;5953;52.372;9.918;2023-03-21T08:05:49;100702.00;;;14.20
11792;BMP180;5953;52.372;9.918;2023-03-21T08:08:17;100732.00;;;14.50
11792;BMP180;5953;52.372;9.918;2023-03-21T08:10:46;100718.00;;;14.60
11792;BMP180;5953;52.372;9.918;2023-03-21T08:13:14;100726.00;;;14.50
11792;BMP180;5953;52.372;9.918;2023-03-21T08:15:41;100739.00;;;14.40
11792;BMP180;5953;52.372;9.918;2023-03-21T08:18:10;100703.00;;;14.50
11792;BMP180;5953;52.372;9.918;2023-03-21T08:20:39;100721.00;;;14.60
11792;BMP180;5953;52.372;9.918;2023-03-21T08:23:07;100709.00;;;14.70
11792;BMP180;5953;52.372;9.918;2023-03-21T08:25:36;100718.00;;;14.60
11792;BMP180;5953;52.372;9.918;2023-03-21T08:28:05;100726.00;;;14.90
11792;BMP180;5953;52.372;9.918;2023-03-21T08:30:33;100724.00;;;15.00
11792;BMP180;5953;52.372;9.918;2023-03-21T08:33:01;100710.00;;;14.90
11792;BMP180;5953;52.372;9.918;2023-03-21T08:35:31;100750.00;;;15.00
11792;BMP180;5953;52.372;9.918;2023-03-21T08:38:02;100709.00;;;15.20
11792;BMP180;5953;52.372;9.918;2023-03-21T08:40:37;100723.00;;;15.10
11792;BMP180;5953;52.372;9.918;2023-03-21T08:43:13;100733.00;;;14.90
11792;BMP180;5953;52.372;9.918;2023-03-21T08:45:47;100734.00;;;15.10
11792;BMP180;5953;52.372;9.918;2023-03-21T08:48:22;100695.00;;;15.10
11792;BMP180;5953;52.372;9.918;2023-03-21T08:50:53;100731.00;;;15.40
11792;BMP180;5953;52.372;9.918;2023-03-21T08:53:24;100706.00;;;15.40
11792;BMP180;5953;52.372;9.918;2023-03-21T08:55:52;100739.00;;;15.10
11792;BMP180;5953;52.372;9.918;2023-03-21T08:58:21;100716.00;;;15.00
11792;BMP180;5953;52.372;9.918;2023-03-21T09:00:49;100716.00;;;15.00
11792;BMP180;5953;52.372;9.918;2023-03-21T09:03:19;100744.00;;;15.00
11792;BMP180;5953;52.372;9.918;2023-03-21T09:05:52;100751.00;;;15.20
11792;BMP180;5953;52.372;9.918;2023-03-21T09:08:21;100704.00;;;15.00
11792;BMP180;5953;52.372;9.918;2023-03-21T09:10:54;100725.00;;;15.10
11792;BMP180;5953;52.372;9.918;2023-03-21T09:13:28;100723.00;;;15.10
11792;BMP180;5953;52.372;9.918;2023-03-21T09:16:04;100689.00;;;14.80
11792;BMP180;5953;52.372;9.918;2023-03-21T09:18:53;100683.00;;;14.90
11792;BMP180;5953;52.372;9.918;2023-03-21T09:21:25;100691.00;;;14.80
11792;BMP180;5953;52.372;9.918;2023-03-21T09:24:02;100693.00;;;14.90
11792;BMP180;5953;52.372;9.918;2023-03-21T09:26:34;100698.00;;;14.90
11792;BMP180;5953;52.372;9.918;2023-03-21T09:29:03;100691.00;;;15.00
11792;BMP180;5953;52.372;9.918;2023-03-21T09:31:43;100705.00;;;15.00
11792;BMP180;5953;52.372;9.918;2023-03-21T09:37:58;100690.00;;;15.00
11792;BMP180;5953;52.372;9.918;2023-03-21T09:41:31;100733.00;;;15.10
11792;BMP180;5953;52.372;9.918;2023-03-21T09:44:40;100719.00;;;15.10
11792;BMP180;5953;52.372;9.918;2023-03-21T09:47:26;100718.00;;;15.20
11792;BMP180;5953;52.372;9.918;2023-03-21T09:53:47;100703.00;;;15.50
11792;BMP180;5953;52.372;9.918;2023-03-21T09:56:35;100723.00;;;15.60
11792;BMP180;5953;52.372;9.918;2023-03-21T09:59:20;100689.00;;;15.40
11792;BMP180;5953;52.372;9.918;2023-03-21T10:02:28;100660.00;;;15.50
11792;BMP180;5953;52.372;9.918;2023-03-21T10:05:25;100694.00;;;15.60
11792;BMP180;5953;52.372;9.918;2023-03-21T10:08:07;100724.00;;;15.50
11792;BMP180;5953;52.372;9.918;2023-03-21T10:10:50;100710.00;;;15.90
11792;BMP180;5953;52.372;9.918;2023-03-21T10:13:34;100704.00;;;16.10
11792;BMP180;5953;52.372;9.918;2023-03-21T10:16:12;100662.00;;;16.10
11792;BMP180;5953;52.372;9.918;2023-03-21T10:18:50;100702.00;;;16.00
11792;BMP180;5953;52.372;9.918;2023-03-21T10:21:30;100657.00;;;16.10
11792;BMP180;5953;52.372;9.918;2023-03-21T10:27:44;100692.00;;;16.30
11792;BMP180;5953;52.372;9.918;2023-03-21T10:30:25;100648.00;;;16.10
11792;BMP180;5953;52.372;9.918;2023-03-21T10:33:00;100647.00;;;16.00
11792;BMP180;5953;52.372;9.918;2023-03-21T10:35:38;100664.00;;;15.80
11792;BMP180;5953;52.372;9.918;2023-03-21T10:38:16;100665.00;;;15.90
11792;BMP180;5953;52.372;9.918;2023-03-21T10:41:01;100672.00;;;15.90
11792;BMP180;5953;52.372;9.918;2023-03-21T10:43:38;100656.00;;;16.00
11792;BMP180;5953;52.372;9.918;2023-03-21T10:46:21;100698.00;;;16.00
11792;BMP180;5953;52.372;9.918;2023-03-21T10:49:06;100694.00;;;15.80
11792;BMP180;5953;52.372;9.918;2023-03-21T10:51:37;100685.00;;;15.70
11792;BMP180;5953;52.372;9.918;2023-03-21T10:54:07;100697.00;;;15.70
11792;BMP180;5953;52.372;9.918;2023-03-21T10:56:43;100689.00;;;15.80
11792;BMP180;5953;52.372;9.918;2023-03-21T10:59:16;100705.00;;;15.80
11792;BMP180;5953;52.372;9.918;2023-03-21T11:01:49;100665.00;;;15.90
11792;BMP180;5953;52.372;9.918;2023-03-21T11:04:24;100655.00;;;16.00
11792;BMP180;5953;52.372;9.918;2023-03-21T11:07:05;100649.00;;;16.00
11792;BMP180;5953;52.372;9.918;2023-03-21T11:09:47;100680.00;;;16.00
11792;BMP180;5953;52.372;9.918;2023-03-21T11:12:28;100666.00;;;15.60
11792;BMP180;5953;52.372;9.918;2023-03-21T11:15:24;100670.00;;;15.80
11792;BMP180;5953;52.372;9.918;2023-03-21T11:17:53;100680.00;;;15.90
11792;BMP180;5953;52.372;9.918;2023-03-21T11:20:29;100659.00;;;15.60
11792;BMP180;5953;52.372;9.918;2023-03-21T11:23:04;100663.00;;;15.70
11792;BMP180;5953;52.372;9.918;2023-03-21T11:25:36;100681.00;;;15.50
11792;BMP180;5953;52.372;9.918;2023-03-21T11:28:08;100675.00;;;15.30
11792;BMP180;5953;52.372;9.918;2023-03-21T11:30:49;100643.00;;;15.20
11792;BMP180;5953;52.372;9.918;2023-03-21T11:33:18;100672.00;;;15.40
11792;BMP180;5953;52.372;9.918;2023-03-21T11:36:01;100679.00;;;15.70
11792;BMP180;5953;52.372;9.918;2023-03-21T11:38:33;100681.00;;;15.80
11792;BMP180;5953;52.372;9.918;2023-03-21T11:41:04;100651.00;;;15.60
11792;BMP180;5953;52.372;9.918;2023-03-21T11:43:35;100667.00;;;15.40
11792;BMP180;5953;52.372;9.918;2023-03-21T11:46:06;100649.00;;;15.50
11792;BMP180;5953;52.372;9.918;2023-03-21T11:48:39;100672.00;;;15.80
11792;BMP180;5953;52.372;9.918;2023-03-21T11:51:23;100660.00;;;15.90
11792;BMP180;5953;52.372;9.918;2023-03-21T11:54:13;100664.00;;;14.60
11792;BMP180;5953;52.372;9.918;2023-03-21T11:56:45;100629.00;;;15.40
11792;BMP180;5953;52.372;9.918;2023-03-21T11:59:25;100653.00;;;15.40
11792;BMP180;5953;52.372;9.918;2023-03-21T12:02:09;100639.00;;;15.20
11792;BMP180;5953;52.372;9.918;2023-03-21T12:04:56;100628.00;;;15.60
11792;BMP180;5953;52.372;9.918;2023-03-21T12:07:48;100678.00;;;15.20
11792;BMP180;5953;52.372;9.918;2023-03-21T12:10:30;100644.00;;;15.40
11792;BMP180;5953;52.372;9.918;2023-03-21T12:16:17;100618.00;;;15.50
11792;BMP180;5953;52.372;9.918;2023-03-21T12:18:59;100647.00;;;15.80
11792;BMP180;5953;52.372;9.918;2023-03-21T12:21:33;100609.00;;;15.60
11792;BMP180;5953;52.372;9.918;2023-03-21T12:24:06;100603.00;;;15.70
11792;BMP180;5953;52.372;9.918;2023-03-21T12:26:42;100644.00;;;15.60
11792;BMP180;5953;52.372;9.918;2023-03-21T12:29:49;100629.00;;;15.50
11792;BMP180;5953;52.372;9.918;2023-03-21T12:32:35;100625.00;;;15.20
11792;BMP180;5953;52.372;9.918;2023-03-21T12:35:26;100615.00;;;15.20
11792;BMP180;5953;52.372;9.918;2023-03-21T12:38:05;100610.00;;;15.40
11792;BMP180;5953;52.372;9.918;2023-03-21T12:43:38;100622.00;;;15.50
11792;BMP180;5953;52.372;9.918;2023-03-21T12:46:14;100591.00;;;15.70
11792;BMP180;5953;52.372;9.918;2023-03-21T12:48:47;100618.00;;;15.60
11792;BMP180;5953;52.372;9.918;2023-03-21T12:51:18;100632.00;;;15.30
11792;BMP180;5953;52.372;9.918;2023-03-21T12:53:54;100625.00;;;15.50
11792;BMP180;5953;52.372;9.918;2023-03-21T12:56:28;100630.00;;;15.60
11792;BMP180;5953;52.372;9.918;2023-03-21T12:59:04;100593.00;;;15.40
11792;BMP180;5953;52.372;9.918;2023-03-21T13:01:36;100615.00;;;15.40
11792;BMP180;5953;52.372;9.918;2023-03-21T13:04:20;100617.00;;;15.20
11792;BMP180;5953;52.372;9.918;2023-03-21T13:06:53;100576.00;;;15.60
11792;BMP180;5953;52.372;9.918;2023-03-21T13:09:36;100597.00;;;15.70
11792;BMP180;5953;52.372;9.918;2023-03-21T13:12:17;100570.00;;;15.80
11792;BMP180;5953;52.372;9.918;2023-03-21T13:15:11;100569.00;;;15.00
11792;BMP180;5953;52.372;9.918;2023-03-21T13:17:59;100566.00;;;15.20
11792;BMP180;5953;52.372;9.918;2023-03-21T13:20:41;100538.00;;;15.50
11792;BMP180;5953;52.372;9.918;2023-03-21T13:23:20;100561.00;;;15.50
11792;BMP180;5953;52.372;9.918;2023-03-21T13:25:54;100555.00;;;15.50
11792;BMP180;5953;52.372;9.918;2023-03-21T13:28:26;100580.00;;;15.60
11792;BMP180;5953;52.372;9.918;2023-03-21T13:31:19;100578.00;;;15.60
11792;BMP180;5953;52.372;9.918;2023-03-21T13:33:49;100561.00;;;15.50
11792;BMP180;5953;52.372;9.918;2023-03-21T13:36:23;100551.00;;;15.40
11792;BMP180;5953;52.372;9.918;2023-03-21T13:39:00;100516.00;;;15.10
11792;BMP180;5953;52.372;9.918;2023-03-21T13:41:33;100563.00;;;15.40
11792;BMP180;5953;52.372;9.918;2023-03-21T13:44:12;100529.00;;;15.70
11792;BMP180;5953;52.372;9.918;2023-03-21T13:46:52;100575.00;;;15.30
11792;BMP180;5953;52.372;9.918;2023-03-21T13:49:28;100546.00;;;15.40
11792;BMP180;5953;52.372;9.918;2023-03-21T13:52:24;100554.00;;;15.00
11792;BMP180;5953;52.372;9.918;2023-03-21T13:54:56;100558.00;;;15.20
11792;BMP180;5953;52.372;9.918;2023-03-21T13:57:36;100545.00;;;15.10
11792;BMP180;5953;52.372;9.918;2023-03-21T14:00:20;100556.00;;;15.40
11792;BMP180;5953;52.372;9.918;2023-03-21T14:02:55;100549.00;;;15.40
11792;BMP180;5953;52.372;9.918;2023-03-21T14:05:28;100545.00;;;15.00
11792;BMP180;5953;52.372;9.918;2023-03-21T14:08:09;100547.00;;;15.10
11792;BMP180;5953;52.372;9.918;2023-03-21T14:11:15;100492.00;;;15.30
11792;BMP180;5953;52.372;9.918;2023-03-21T14:14:05;100495.00;;;15.20
11792;BMP180;5953;52.372;9.918;2023-03-21T14:16:59;100506.00;;;15.40
11792;BMP180;5953;52.372;9.918;2023-03-21T14:19:31;100514.00;;;15.40
11792;BMP180;5953;52.372;9.918;2023-03-21T14:22:13;100505.00;;;15.60
11792;BMP180;5953;52.372;9.918;2023-03-21T14:24:54;100543.00;;;15.50
11792;BMP180;5953;52.372;9.918;2023-03-21T14:28:28;100535.00;;;15.80
11792;BMP180;5953;52.372;9.918;2023-03-21T14:32:04;100522.00;;;15.60
11792;BMP180;5953;52.372;9.918;2023-03-21T14:38:37;100530.00;;;15.70
11792;BMP180;5953;52.372;9.918;2023-03-21T14:42:10;100511.00;;;15.60
11792;BMP180;5953;52.372;9.918;2023-03-21T14:47:39;100520.00;;;15.40
11792;BMP180;5953;52.372;9.918;2023-03-21T14:50:09;100518.00;;;15.40
11792;BMP180;5953;52.372;9.918;2023-03-21T14:52:40;100516.00;;;15.20
11792;BMP180;5953;52.372;9.918;2023-03-21T14:55:14;100517.00;;;15.20
11792;BMP180;5953;52.372;9.918;2023-03-21T14:57:43;100504.00;;;15.20
11792;BMP180;5953;52.372;9.918;2023-03-21T15:00:21;100503.00;;;15.30
11792;BMP180;5953;52.372;9.918;2023-03-21T15:02:50;100502.00;;;15.00
11792;BMP180;5953;52.372;9.918;2023-03-21T15:05:22;100494.00;;;15.30
11792;BMP180;5953;52.372;9.918;2023-03-21T15:07:53;100498.00;;;15.30
11792;BMP180;5953;52.372;9.918;2023-03-21T15:10:25;100499.00;;;15.30
11792;BMP180;5953;52.372;9.918;2023-03-21T15:12:55;100490.00;;;15.30
11792;BMP180;5953;52.372;9.918;2023-03-21T15:15:25;100488.00;;;15.30
11792;BMP180;5953;52.372;9.918;2023-03-21T15:17:55;100490.00;;;15.30
11792;BMP180;5953;52.372;9.918;2023-03-21T15:20:25;100487.00;;;15.50
11792;BMP180;5953;52.372;9.918;2023-03-21T15:22:57;100481.00;;;15.10